createdAt,value
2018-10-21T00:01:37.289Z,37.30
2018-10-21T00:04:06.497Z,39.50
2018-10-21T00:06:35.337Z,36.23
2018-10-21T00:09:06.090Z,35.00
2018-10-21T00:11:35.400Z,35.57
2018-10-21T00:14:04.294Z,34.40
2018-10-21T00:16:33.068Z,31.93
2018-10-21T00:19:01.754Z,32.80
2018-10-21T00:21:30.383Z,31.13
2018-10-21T00:23:58.993Z,28.53
2018-10-21T00:26:27.916Z,27.77
2018-10-21T00:28:57.567Z,29.33
2018-10-21T00:31:26.150Z,28.83
2018-10-21T00:33:55.384Z,29.57
2018-10-21T00:36:24.166Z,33.90
2018-10-21T00:38:52.919Z,26.27
2018-10-21T00:41:21.929Z,24.77
2018-10-21T00:43:50.648Z,32.17
2018-10-21T00:46:19.326Z,26.13
2018-10-21T00:48:48.004Z,26.63
2018-10-21T00:51:16.950Z,28.07
2018-10-21T00:53:46.106Z,26.03
2018-10-21T00:56:14.781Z,28.37
2018-10-21T00:58:43.361Z,28.17
2018-10-21T01:01:11.913Z,23.67
2018-10-21T01:03:40.519Z,27.63
2018-10-21T01:06:09.078Z,29.33
2018-10-21T01:08:37.944Z,28.70
2018-10-21T01:11:06.641Z,26.10
2018-10-21T01:13:35.470Z,27.30
2018-10-21T01:16:04.184Z,26.87
2018-10-21T01:18:32.955Z,27.20
2018-10-21T01:21:01.527Z,28.40
2018-10-21T01:23:30.615Z,26.00
2018-10-21T01:25:59.249Z,28.07
2018-10-21T01:28:27.945Z,31.00
2018-10-21T01:30:56.994Z,28.73
2018-10-21T01:33:25.582Z,27.43
2018-10-21T01:35:54.234Z,27.30
2018-10-21T01:38:23.106Z,28.73
2018-10-21T01:40:53.870Z,27.13
2018-10-21T01:43:23.866Z,29.20
2018-10-21T01:45:52.475Z,31.43
2018-10-21T01:48:22.128Z,28.97
2018-10-21T01:50:50.901Z,28.43
2018-10-21T01:53:20.287Z,32.70
2018-10-21T01:55:48.969Z,29.17
2018-10-21T01:58:17.790Z,29.73
2018-10-21T02:00:46.822Z,29.67
2018-10-21T02:03:16.544Z,30.07
2018-10-21T02:05:46.078Z,27.10
2018-10-21T02:08:14.714Z,26.83
2018-10-21T02:10:43.519Z,30.37
2018-10-21T02:13:12.151Z,27.70
2018-10-21T02:15:40.700Z,28.13
2018-10-21T02:18:10.094Z,28.10
2018-10-21T02:20:38.650Z,30.27
2018-10-21T02:23:07.462Z,30.43
2018-10-21T02:25:36.043Z,27.43
2018-10-21T02:28:04.874Z,34.13
2018-10-21T02:30:33.614Z,31.90
2018-10-21T02:33:02.776Z,30.73
2018-10-21T02:35:31.502Z,27.20
2018-10-21T02:38:00.147Z,33.23
2018-10-21T02:50:52.390Z,28.63
2018-10-21T02:53:20.972Z,28.87
2018-10-21T02:55:49.665Z,28.80
2018-10-21T02:58:18.370Z,28.03
2018-10-21T03:00:46.939Z,28.27
2018-10-21T03:03:15.815Z,29.90
2018-10-21T03:05:44.409Z,27.80
2018-10-21T03:08:12.998Z,26.83
2018-10-21T03:10:41.678Z,30.37
2018-10-21T03:13:10.299Z,26.93
2018-10-21T03:15:39.008Z,27.83
2018-10-21T03:18:07.707Z,25.60
2018-10-21T03:20:36.190Z,28.63
2018-10-21T03:23:05.162Z,26.67
2018-10-21T03:25:33.887Z,25.47
2018-10-21T03:28:02.578Z,28.30
2018-10-21T03:30:31.432Z,28.13
2018-10-21T03:33:00.192Z,26.63
2018-10-21T03:35:28.799Z,28.10
2018-10-21T03:37:57.894Z,27.90
2018-10-21T03:40:26.675Z,24.87
2018-10-21T03:42:55.630Z,29.87
2018-10-21T03:45:25.129Z,25.33
2018-10-21T03:47:54.534Z,28.13
2018-10-21T03:57:30.727Z,26.30
2018-10-21T04:00:02.668Z,28.57
2018-10-21T04:02:32.973Z,29.67
2018-10-21T04:05:01.560Z,29.30
2018-10-21T04:07:30.997Z,26.40
2018-10-21T04:09:59.899Z,26.23
2018-10-21T04:12:28.661Z,26.93
2018-10-21T04:14:57.368Z,22.23
2018-10-21T04:17:25.965Z,23.60
2018-10-21T04:19:54.606Z,25.87
2018-10-21T04:22:23.430Z,25.67
2018-10-21T04:24:52.008Z,22.60
2018-10-21T04:27:20.617Z,20.70
2018-10-21T04:29:49.194Z,19.23
2018-10-21T04:32:17.789Z,19.33
2018-10-21T04:34:46.569Z,18.53
2018-10-21T04:37:26.824Z,18.30
2018-10-21T04:40:09.176Z,18.67
2018-10-21T04:42:37.903Z,16.83
2018-10-21T04:45:07.217Z,15.53
2018-10-21T04:47:35.978Z,15.67
2018-10-21T04:50:04.721Z,14.33
2018-10-21T04:52:34.058Z,15.03
2018-10-21T04:55:05.608Z,14.37
2018-10-21T04:57:34.911Z,16.40
2018-10-21T05:00:03.930Z,15.00
2018-10-21T05:02:32.908Z,14.63
2018-10-21T05:05:01.627Z,14.43
2018-10-21T05:07:30.158Z,14.27
2018-10-21T05:09:58.776Z,14.57
2018-10-21T05:12:27.463Z,15.50
2018-10-21T05:14:56.030Z,16.43
2018-10-21T05:17:24.694Z,17.43
2018-10-21T05:19:53.438Z,15.00
2018-10-21T05:22:21.882Z,14.57
2018-10-21T05:24:50.383Z,16.10
2018-10-21T05:27:18.835Z,14.63
2018-10-21T05:29:47.306Z,14.30
2018-10-21T05:32:15.772Z,16.60
2018-10-21T05:34:44.227Z,15.53
2018-10-21T05:37:12.780Z,15.27
2018-10-21T05:39:41.350Z,18.47
2018-10-21T05:42:09.835Z,16.73
2018-10-21T05:44:38.323Z,18.07
2018-10-21T05:47:06.845Z,15.73
2018-10-21T05:49:35.477Z,14.73
2018-10-21T05:52:03.978Z,15.70
2018-10-21T05:54:34.596Z,14.50
2018-10-21T05:57:03.097Z,16.40
2018-10-21T05:59:31.657Z,14.80
2018-10-21T06:02:00.146Z,15.67
2018-10-21T06:04:28.604Z,17.77
2018-10-21T06:06:57.076Z,15.50
2018-10-21T06:09:25.621Z,16.17
2018-10-21T06:11:54.189Z,16.50
2018-10-21T06:14:22.677Z,15.73
2018-10-21T06:16:57.522Z,16.47
2018-10-21T06:19:32.722Z,17.10
2018-10-21T06:22:01.412Z,18.67
2018-10-21T06:24:29.915Z,17.17
2018-10-21T06:26:58.393Z,16.57
2018-10-21T06:29:26.850Z,16.73
2018-10-21T06:31:55.406Z,16.17
2018-10-21T06:34:24.042Z,18.07
2018-10-21T06:36:52.630Z,16.90
2018-10-21T06:39:21.274Z,20.03
2018-10-21T06:41:49.965Z,15.43
2018-10-21T06:44:18.617Z,16.57
2018-10-21T06:46:47.117Z,16.80
2018-10-21T06:49:15.599Z,17.00
2018-10-21T06:51:44.358Z,17.07
2018-10-21T06:54:12.878Z,16.47
2018-10-21T06:56:41.454Z,18.13
2018-10-21T06:59:09.851Z,17.67
2018-10-21T07:01:38.334Z,18.10
2018-10-21T07:04:07.522Z,17.83
2018-10-21T07:06:36.007Z,17.77
2018-10-21T07:09:06.080Z,19.97
2018-10-21T07:11:34.895Z,23.20
2018-10-21T07:14:03.427Z,23.90
2018-10-21T07:16:32.045Z,22.37
2018-10-21T07:19:00.414Z,24.13
2018-10-21T07:21:28.895Z,22.83
2018-10-21T07:23:57.399Z,24.60
2018-10-21T07:26:25.867Z,24.83
2018-10-21T07:28:54.350Z,24.10
2018-10-21T07:31:22.855Z,25.57
2018-10-21T07:33:51.385Z,27.57
2018-10-21T07:36:20.044Z,25.93
2018-10-21T07:38:48.514Z,29.53
2018-10-21T07:41:17.058Z,25.40
2018-10-21T07:43:45.575Z,24.33
2018-10-21T07:46:14.298Z,25.03
2018-10-21T07:48:42.793Z,25.93
2018-10-21T07:51:11.273Z,24.63
2018-10-21T07:53:40.019Z,28.67
2018-10-21T07:56:09.104Z,24.33
2018-10-21T07:58:37.958Z,23.93
2018-10-21T08:01:06.543Z,25.77
2018-10-21T08:03:35.058Z,26.50
2018-10-21T08:06:26.174Z,27.77
2018-10-21T08:08:54.719Z,28.83
2018-10-21T08:11:23.556Z,32.43
2018-10-21T08:13:52.246Z,32.33
2018-10-21T08:16:21.017Z,30.70
2018-10-21T08:18:50.337Z,33.90
2018-10-21T08:21:18.957Z,29.73
2018-10-21T08:23:47.828Z,30.20
2018-10-21T08:26:16.429Z,30.73
2018-10-21T08:28:44.949Z,26.60
2018-10-21T08:31:14.709Z,28.40
2018-10-21T08:33:43.221Z,25.50
2018-10-21T08:36:11.680Z,30.13
2018-10-21T08:38:41.210Z,28.60
2018-10-21T08:41:09.728Z,22.27
2018-10-21T08:43:38.461Z,26.57
2018-10-21T08:46:07.158Z,24.77
2018-10-21T08:48:35.783Z,27.17
2018-10-21T08:51:04.235Z,27.27
2018-10-21T08:53:32.781Z,25.57
2018-10-21T08:56:01.386Z,27.87
2018-10-21T08:58:29.998Z,24.80
2018-10-21T09:00:58.544Z,24.67
2018-10-21T09:03:27.271Z,27.53
2018-10-21T09:05:55.774Z,24.70
2018-10-21T09:08:24.330Z,24.73
2018-10-21T09:10:52.863Z,26.70
2018-10-21T09:13:21.581Z,26.30
2018-10-21T09:15:50.079Z,28.03
2018-10-21T09:18:18.580Z,35.50
2018-10-21T09:20:48.056Z,26.83
2018-10-21T09:23:16.530Z,29.17
2018-10-21T09:25:45.035Z,26.23
2018-10-21T09:28:13.651Z,24.87
2018-10-21T09:30:42.230Z,30.23
2018-10-21T09:33:10.900Z,25.10
2018-10-21T09:35:39.414Z,28.17
2018-10-21T09:38:08.070Z,26.47
2018-10-21T09:40:36.718Z,22.83
2018-10-21T09:43:05.829Z,24.13
2018-10-21T09:45:34.330Z,22.30
2018-10-21T09:48:02.845Z,21.80
2018-10-21T09:50:31.327Z,21.13
2018-10-21T09:52:59.848Z,22.73
2018-10-21T09:55:28.592Z,20.53
2018-10-21T09:57:57.198Z,21.00
2018-10-21T10:00:31.219Z,22.07
2018-10-21T10:03:08.922Z,21.90
2018-10-21T10:05:37.643Z,20.03
2018-10-21T10:08:06.178Z,19.93
2018-10-21T10:10:34.976Z,22.53
2018-10-21T10:13:03.559Z,21.80
2018-10-21T10:15:32.123Z,21.40
2018-10-21T10:18:00.620Z,22.70
2018-10-21T10:20:29.126Z,22.47
2018-10-21T10:22:57.890Z,20.90
2018-10-21T10:25:26.492Z,20.50
2018-10-21T10:27:55.236Z,19.10
2018-10-21T10:30:23.892Z,19.17
2018-10-21T10:32:52.350Z,17.50
2018-10-21T10:35:20.853Z,17.07
2018-10-21T10:37:49.407Z,17.03
2018-10-21T10:40:17.955Z,19.60
2018-10-21T10:42:46.420Z,19.07
2018-10-21T10:45:14.923Z,17.20
2018-10-21T10:47:43.454Z,18.40
2018-10-21T10:50:12.327Z,17.43
2018-10-21T10:52:41.192Z,17.00
2018-10-21T10:55:10.162Z,18.47
2018-10-21T10:57:39.639Z,19.57
2018-10-21T11:00:18.772Z,19.37
2018-10-21T11:02:47.276Z,17.20
2018-10-21T11:05:15.919Z,21.03
2018-10-21T11:07:44.399Z,19.60
2018-10-21T11:10:13.038Z,20.83
2018-10-21T11:12:41.554Z,20.60
2018-10-21T11:15:11.089Z,18.67
2018-10-21T11:17:40.346Z,20.80
2018-10-21T11:20:09.570Z,16.33
2018-10-21T11:22:41.759Z,19.83
2018-10-21T11:25:23.622Z,17.40
2018-10-21T11:27:53.407Z,19.97
2018-10-21T11:43:49.133Z,23.17
2018-10-21T11:46:17.719Z,23.40
2018-10-21T11:48:46.242Z,25.83
2018-10-21T11:51:15.311Z,36.37
2018-10-21T11:53:44.050Z,21.53
2018-10-21T11:56:12.772Z,26.07
2018-10-21T11:58:41.714Z,35.20
2018-10-21T12:01:10.630Z,25.30
2018-10-21T12:03:39.298Z,29.47
2018-10-21T12:06:07.947Z,32.87
2018-10-21T12:08:36.616Z,21.27
2018-10-21T12:11:05.622Z,21.70
2018-10-21T12:13:34.177Z,19.90
2018-10-21T12:16:02.746Z,23.40
2018-10-21T12:18:31.560Z,22.70
2018-10-21T12:21:00.106Z,18.00
2018-10-21T12:23:28.818Z,24.40
2018-10-21T12:25:57.269Z,20.80
2018-10-21T12:28:25.878Z,19.23
2018-10-21T12:30:54.528Z,21.60
2018-10-21T12:33:23.064Z,19.43
2018-10-21T12:35:51.723Z,18.33
2018-10-21T12:38:20.222Z,20.53
2018-10-21T12:40:48.704Z,19.70
2018-10-21T12:43:17.441Z,20.20
2018-10-21T12:45:45.899Z,19.60
2018-10-21T12:48:14.420Z,19.67
2018-10-21T12:50:42.927Z,18.43
2018-10-21T12:53:11.568Z,22.47
2018-10-21T12:55:45.603Z,19.60
2018-10-21T12:58:14.570Z,22.80
2018-10-21T13:00:43.112Z,20.90
2018-10-21T13:03:11.889Z,20.13
2018-10-21T13:05:41.770Z,18.10
2018-10-21T13:08:10.475Z,17.53
2018-10-21T13:10:39.245Z,21.70
2018-10-21T13:13:07.860Z,25.03
2018-10-21T13:15:36.314Z,21.43
2018-10-21T13:18:05.625Z,21.10
2018-10-21T13:20:34.481Z,20.50
2018-10-21T13:23:02.992Z,19.17
2018-10-21T13:25:31.726Z,18.07
2018-10-21T13:28:00.727Z,19.20
2018-10-21T13:30:29.250Z,20.67
2018-10-21T13:32:57.780Z,20.43
2018-10-21T13:35:26.290Z,22.07
2018-10-21T13:37:55.090Z,24.23
2018-10-21T13:40:24.048Z,23.00
2018-10-21T13:42:52.773Z,29.83
2018-10-21T13:45:21.956Z,24.40
2018-10-21T13:47:50.577Z,21.63
2018-10-21T13:50:19.384Z,20.50
2018-10-21T13:52:47.962Z,21.03
2018-10-21T13:55:16.787Z,23.03
2018-10-21T13:57:45.268Z,21.03
2018-10-21T14:00:13.813Z,19.17
2018-10-21T14:02:42.331Z,21.47
2018-10-21T14:05:10.879Z,23.07
2018-10-21T14:07:40.422Z,22.00
2018-10-21T14:10:09.351Z,21.37
2018-10-21T14:12:38.116Z,22.63
2018-10-21T14:15:07.158Z,20.07
2018-10-21T14:17:35.724Z,22.60
2018-10-21T14:20:04.620Z,20.83
2018-10-21T14:22:33.671Z,25.10
2018-10-21T14:25:02.248Z,21.47
2018-10-21T14:27:30.903Z,20.47
2018-10-21T14:30:00.193Z,17.70
2018-10-21T14:32:28.845Z,20.60
2018-10-21T14:34:57.339Z,18.30
2018-10-21T14:37:26.108Z,21.43
2018-10-21T14:39:54.882Z,19.90
2018-10-21T14:42:23.563Z,26.63
2018-10-21T14:44:52.285Z,70.47
2018-10-21T14:47:20.954Z,50.90
2018-10-21T14:49:49.523Z,52.77
2018-10-21T14:52:18.128Z,46.67
2018-10-21T14:54:46.834Z,32.90
2018-10-21T14:57:15.408Z,29.27
2018-10-21T14:59:44.245Z,28.73
2018-10-21T15:02:12.862Z,25.53
2018-10-21T15:04:41.407Z,28.40
2018-10-21T15:07:09.976Z,25.27
2018-10-21T15:09:38.647Z,29.90
2018-10-21T15:12:07.205Z,37.13
2018-10-21T15:14:35.969Z,40.30
2018-10-21T15:17:04.916Z,39.17
2018-10-21T15:19:33.593Z,34.27
2018-10-21T15:22:02.315Z,30.93
2018-10-21T15:24:30.953Z,32.00
2018-10-21T15:26:59.623Z,30.50
2018-10-21T15:29:28.272Z,27.97
2018-10-21T15:31:56.830Z,29.60
2018-10-21T15:34:25.595Z,30.90
2018-10-21T15:36:54.327Z,31.73
2018-10-21T15:39:23.017Z,32.33
2018-10-21T15:41:51.591Z,33.20
2018-10-21T15:44:20.515Z,30.93
2018-10-21T15:46:49.008Z,38.13
2018-10-21T15:49:17.597Z,44.23
2018-10-21T15:51:46.175Z,45.20
2018-10-21T15:54:14.928Z,47.97
2018-10-21T15:56:43.918Z,50.43
2018-10-21T15:59:12.517Z,46.23
2018-10-21T16:01:41.490Z,48.63
2018-10-21T16:04:10.278Z,43.33
2018-10-21T16:06:38.943Z,38.73
2018-10-21T16:09:10.347Z,42.83
2018-10-21T16:11:39.305Z,42.40
2018-10-21T16:14:07.897Z,50.67
2018-10-21T16:16:36.367Z,44.13
2018-10-21T16:19:05.345Z,42.13
2018-10-21T16:21:34.942Z,38.03
2018-10-21T16:24:04.437Z,39.93
2018-10-21T16:26:33.089Z,49.70
2018-10-21T16:29:02.382Z,48.90
2018-10-21T16:31:31.023Z,53.00
2018-10-21T16:33:59.932Z,52.80
2018-10-21T16:36:28.658Z,51.43
2018-10-21T16:38:57.236Z,53.00
2018-10-21T16:41:29.273Z,53.70
2018-10-21T16:43:58.100Z,53.97
2018-10-21T16:46:26.634Z,63.27
2018-10-21T16:48:55.805Z,85.10
2018-10-21T16:51:24.500Z,100.60
2018-10-21T16:53:54.489Z,100.33
2018-10-21T16:56:22.990Z,107.33
2018-10-21T16:58:51.547Z,100.17
2018-10-21T17:01:20.094Z,106.53
2018-10-21T17:03:48.974Z,93.93
2018-10-21T17:06:17.847Z,90.70
2018-10-21T17:08:46.394Z,79.40
2018-10-21T17:11:15.294Z,82.80
2018-10-21T17:13:43.991Z,78.83
2018-10-21T17:16:12.715Z,78.73
2018-10-21T17:18:41.226Z,87.13
2018-10-21T17:21:10.026Z,95.73
2018-10-21T17:23:38.731Z,83.60
2018-10-21T17:26:07.631Z,74.90
2018-10-21T17:28:36.159Z,80.80
2018-10-21T17:31:05.094Z,99.83
2018-10-21T17:33:33.941Z,116.73
2018-10-21T17:36:02.660Z,162.10
2018-10-21T17:38:31.475Z,154.93
2018-10-21T17:41:00.448Z,148.13
2018-10-21T17:43:29.114Z,126.40
2018-10-21T17:45:57.973Z,98.80
2018-10-21T17:48:26.487Z,80.80
2018-10-21T17:50:55.123Z,61.97
2018-10-21T17:53:23.683Z,59.80
2018-10-21T17:55:52.323Z,63.53
2018-10-21T17:58:21.442Z,66.43
2018-10-21T18:00:49.949Z,70.27
2018-10-21T18:03:18.454Z,75.40
2018-10-21T18:05:47.260Z,81.10
2018-10-21T18:08:15.818Z,104.00
2018-10-21T18:10:44.657Z,116.53
2018-10-21T18:13:13.468Z,104.13
2018-10-21T18:15:42.276Z,102.47
2018-10-21T18:18:11.068Z,105.23
2018-10-21T18:20:39.890Z,101.07
2018-10-21T18:23:08.497Z,90.07
2018-10-21T18:25:37.239Z,98.83
2018-10-21T18:28:06.354Z,93.33
2018-10-21T18:30:34.987Z,106.10
2018-10-21T18:33:03.901Z,95.10
2018-10-21T18:35:32.448Z,91.80
2018-10-21T18:38:01.153Z,95.97
2018-10-21T18:40:30.091Z,90.20
2018-10-21T18:42:59.227Z,87.23
2018-10-21T18:45:28.101Z,80.10
2018-10-21T18:47:57.914Z,72.93
2018-10-21T18:50:26.493Z,87.43
2018-10-21T18:52:55.168Z,92.43
2018-10-21T18:55:23.835Z,104.97
2018-10-21T18:57:52.549Z,100.70
2018-10-21T19:00:21.314Z,101.83
2018-10-21T19:02:50.026Z,104.03
2018-10-21T19:05:18.865Z,93.60
2018-10-21T19:07:47.455Z,88.60
2018-10-21T19:10:16.903Z,72.93
2018-10-21T19:12:45.751Z,85.43
2018-10-21T19:15:14.927Z,79.60
2018-10-21T19:17:44.907Z,87.07
2018-10-21T19:20:15.651Z,82.20
2018-10-21T19:22:44.431Z,74.07
2018-10-21T19:25:14.532Z,68.77
2018-10-21T19:27:44.856Z,65.47
2018-10-21T19:30:14.271Z,65.53
2018-10-21T19:32:44.249Z,65.73
2018-10-21T19:35:15.031Z,64.93
2018-10-21T19:37:46.068Z,58.70
2018-10-21T19:40:23.218Z,60.37
2018-10-21T19:42:52.080Z,61.00
2018-10-21T19:45:21.288Z,59.43
2018-10-21T19:47:49.993Z,56.53
2018-10-21T19:50:18.867Z,58.73
2018-10-21T19:52:47.773Z,61.17
2018-10-21T19:55:16.652Z,58.27
2018-10-21T19:57:45.789Z,59.33
2018-10-21T20:00:15.678Z,60.83
2018-10-21T20:02:44.578Z,62.90
2018-10-21T20:05:13.363Z,62.67
2018-10-21T20:07:42.131Z,71.03
2018-10-21T20:10:12.717Z,64.20
2018-10-21T20:12:41.812Z,64.90
2018-10-21T20:15:11.514Z,64.77
2018-10-21T20:17:40.543Z,72.50
2018-10-21T20:20:10.686Z,68.07
2018-10-21T20:22:39.296Z,71.73
2018-10-21T20:25:08.880Z,60.70
2018-10-21T20:27:37.941Z,59.00
2018-10-21T20:30:07.934Z,58.43
2018-10-21T20:32:36.611Z,52.60
2018-10-21T20:35:06.707Z,49.40
2018-10-21T20:37:35.591Z,46.93
2018-10-21T20:40:04.494Z,46.20
2018-10-21T20:42:33.019Z,45.43
2018-10-21T20:45:01.691Z,36.90
2018-10-21T20:47:30.583Z,38.43
2018-10-21T20:49:59.185Z,38.13
2018-10-21T20:52:28.239Z,38.97
2018-10-21T20:54:57.863Z,37.83
2018-10-21T20:57:26.641Z,35.30
2018-10-21T20:59:55.382Z,37.33
2018-10-21T21:02:24.417Z,38.60
2018-10-21T21:04:53.107Z,36.73
2018-10-21T21:07:21.721Z,34.77
2018-10-21T21:09:51.929Z,34.20
2018-10-21T21:12:24.139Z,37.83
2018-10-21T21:14:53.155Z,36.67
2018-10-21T21:17:21.760Z,35.00
2018-10-21T21:19:50.408Z,31.93
2018-10-21T21:22:19.115Z,36.60
2018-10-21T21:24:47.772Z,33.87
2018-10-21T21:27:16.597Z,31.60
2018-10-21T21:29:45.453Z,34.23
2018-10-21T21:32:14.313Z,34.47
2018-10-21T21:34:43.035Z,33.10
2018-10-21T21:37:12.088Z,33.53
2018-10-21T21:39:40.680Z,32.70
2018-10-21T21:42:09.388Z,33.97
2018-10-21T21:44:38.053Z,35.83
2018-10-21T21:47:07.041Z,34.50
2018-10-21T21:49:35.841Z,34.83
2018-10-21T21:52:04.651Z,39.93
2018-10-21T21:54:33.272Z,39.83
2018-10-21T21:57:02.070Z,42.23
2018-10-21T21:59:30.837Z,37.30
2018-10-21T22:01:59.560Z,39.33
2018-10-21T22:04:28.308Z,37.30
2018-10-21T22:06:56.898Z,40.00
2018-10-21T22:09:25.571Z,41.97
2018-10-21T22:11:54.276Z,41.90
2018-10-21T22:14:23.242Z,36.90
2018-10-21T22:16:51.784Z,38.03
2018-10-21T22:19:20.563Z,38.57
2018-10-21T22:21:50.416Z,38.43
2018-10-21T22:24:19.000Z,35.60
2018-10-21T22:26:47.738Z,39.13
2018-10-21T22:29:16.300Z,36.90
2018-10-21T22:31:45.225Z,35.10
2018-10-21T22:34:14.177Z,37.07
2018-10-21T22:36:42.649Z,37.53
2018-10-21T22:39:14.493Z,38.40
2018-10-21T22:41:43.332Z,35.60
2018-10-21T22:44:11.998Z,38.63
2018-10-21T22:46:40.778Z,37.97
2018-10-21T22:49:09.384Z,34.37
2018-10-21T22:51:38.117Z,37.87
2018-10-21T22:54:06.772Z,33.33
2018-10-21T22:56:35.373Z,37.57
2018-10-21T22:59:04.147Z,36.23
2018-10-21T23:01:32.765Z,35.90
2018-10-21T23:04:01.639Z,32.90
2018-10-21T23:06:30.151Z,35.70
2018-10-21T23:08:58.923Z,31.70
2018-10-21T23:11:27.586Z,37.37
2018-10-21T23:13:57.724Z,36.87
2018-10-21T23:16:26.577Z,33.80
2018-10-21T23:20:05.312Z,35.47
2018-10-21T23:22:33.924Z,32.67
2018-10-21T23:25:02.593Z,34.50
2018-10-21T23:27:31.197Z,35.43
2018-10-21T23:29:59.848Z,35.70
2018-10-21T23:32:28.529Z,33.87
2018-10-21T23:34:57.296Z,33.67
2018-10-21T23:37:25.893Z,38.97
2018-10-21T23:39:54.467Z,35.60
2018-10-21T23:42:23.195Z,31.90
2018-10-21T23:44:52.196Z,60.07
2018-10-21T23:47:21.338Z,68.43
2018-10-21T23:49:50.357Z,75.17
2018-10-21T23:52:19.003Z,78.67
2018-10-21T23:54:49.578Z,79.30
2018-10-21T23:57:39.597Z,79.07
